sensor_id;sensor_type;location;lat;lon;timestamp;P1;durP1;ratioP1;P2;durP2;ratioP2
17866;SDS011;9059;49.934;8.650;2022-07-21T00:00:14;15.13;;;8.93;;
17866;SDS011;9059;49.934;8.650;2022-07-21T00:01:17;16.05;;;9.02;;
17866;SDS011;9059;49.934;8.650;2022-07-21T00:02:19;16.50;;;8.60;;
17866;SDS011;9059;49.934;8.650;2022-07-21T00:03:20;14.65;;;8.63;;
17866;SDS011;9059;49.934;8.650;2022-07-21T00:04:21;16.60;;;8.98;;
17866;SDS011;9059;49.934;8.650;2022-07-21T00:05:23;16.75;;;8.60;;
17866;SDS011;9059;49.934;8.650;2022-07-21T00:06:24;11.45;;;7.30;;
17866;SDS011;9059;49.934;8.650;2022-07-21T00:07:26;11.55;;;7.43;;
17866;SDS011;9059;49.934;8.650;2022-07-21T00:08:27;12.02;;;7.03;;
17866;SDS011;9059;49.934;8.650;2022-07-21T00:09:29;14.75;;;7.40;;
17866;SDS011;9059;49.934;8.650;2022-07-21T00:10:30;14.75;;;7.07;;
17866;SDS011;9059;49.934;8.650;2022-07-21T00:11:31;13.45;;;7.30;;
17866;SDS011;9059;49.934;8.650;2022-07-21T00:12:32;12.25;;;7.13;;
17866;SDS011;9059;49.934;8.650;2022-07-21T00:13:34;18.10;;;7.53;;
17866;SDS011;9059;49.934;8.650;2022-07-21T00:14:35;15.45;;;6.68;;
17866;SDS011;9059;49.934;8.650;2022-07-21T00:15:36;12.73;;;7.68;;
17866;SDS011;9059;49.934;8.650;2022-07-21T00:16:37;15.68;;;7.43;;
17866;SDS011;9059;49.934;8.650;2022-07-21T00:17:41;13.93;;;7.60;;
17866;SDS011;9059;49.934;8.650;2022-07-21T00:18:43;11.55;;;6.97;;
17866;SDS011;9059;49.934;8.650;2022-07-21T00:19:44;13.63;;;7.63;;
17866;SDS011;9059;49.934;8.650;2022-07-21T00:20:45;13.68;;;7.30;;
17866;SDS011;9059;49.934;8.650;2022-07-21T00:21:47;10.30;;;6.85;;
17866;SDS011;9059;49.934;8.650;2022-07-21T00:22:48;15.70;;;7.05;;
17866;SDS011;9059;49.934;8.650;2022-07-21T00:23:50;12.82;;;7.00;;
17866;SDS011;9059;49.934;8.650;2022-07-21T00:24:50;10.10;;;6.80;;
17866;SDS011;9059;49.934;8.650;2022-07-21T00:25:52;14.02;;;7.70;;
17866;SDS011;9059;49.934;8.650;2022-07-21T00:26:53;13.55;;;7.28;;
17866;SDS011;9059;49.934;8.650;2022-07-21T00:27:55;11.13;;;7.35;;
17866;SDS011;9059;49.934;8.650;2022-07-21T00:28:56;11.55;;;7.20;;
17866;SDS011;9059;49.934;8.650;2022-07-21T00:29:58;12.98;;;7.40;;
17866;SDS011;9059;49.934;8.650;2022-07-21T00:30:58;17.27;;;7.05;;
17866;SDS011;9059;49.934;8.650;2022-07-21T00:32:00;12.02;;;7.10;;
17866;SDS011;9059;49.934;8.650;2022-07-21T00:33:05;10.27;;;6.53;;
17866;SDS011;9059;49.934;8.650;2022-07-21T00:34:06;12.30;;;6.95;;
17866;SDS011;9059;49.934;8.650;2022-07-21T00:35:08;12.50;;;7.03;;
17866;SDS011;9059;49.934;8.650;2022-07-21T00:36:10;9.55;;;6.78;;
17866;SDS011;9059;49.934;8.650;2022-07-21T00:37:11;10.77;;;7.28;;
17866;SDS011;9059;49.934;8.650;2022-07-21T00:38:13;12.48;;;6.90;;
17866;SDS011;9059;49.934;8.650;2022-07-21T00:39:13;12.68;;;7.45;;
17866;SDS011;9059;49.934;8.650;2022-07-21T00:40:15;13.15;;;7.53;;
17866;SDS011;9059;49.934;8.650;2022-07-21T00:41:16;11.98;;;6.80;;
17866;SDS011;9059;49.934;8.650;2022-07-21T00:42:21;12.07;;;6.88;;
17866;SDS011;9059;49.934;8.650;2022-07-21T00:43:22;11.10;;;6.43;;
17866;SDS011;9059;49.934;8.650;2022-07-21T00:44:24;16.48;;;6.95;;
17866;SDS011;9059;49.934;8.650;2022-07-21T00:45:26;12.55;;;7.00;;
17866;SDS011;9059;49.934;8.650;2022-07-21T00:46:28;16.27;;;7.05;;
17866;SDS011;9059;49.934;8.650;2022-07-21T00:47:29;13.43;;;7.30;;
17866;SDS011;9059;49.934;8.650;2022-07-21T00:48:32;12.00;;;7.18;;
17866;SDS011;9059;49.934;8.650;2022-07-21T00:49:34;10.10;;;6.90;;
17866;SDS011;9059;49.934;8.650;2022-07-21T00:50:35;12.38;;;7.00;;
17866;SDS011;9059;49.934;8.650;2022-07-21T00:51:37;12.80;;;6.85;;
17866;SDS011;9059;49.934;8.650;2022-07-21T00:52:37;13.13;;;7.65;;
17866;SDS011;9059;49.934;8.650;2022-07-21T00:53:39;12.20;;;6.45;;
17866;SDS011;9059;49.934;8.650;2022-07-21T00:54:40;16.40;;;6.95;;
17866;SDS011;9059;49.934;8.650;2022-07-21T00:55:42;14.80;;;6.80;;
17866;SDS011;9059;49.934;8.650;2022-07-21T00:56:43;14.23;;;7.28;;
17866;SDS011;9059;49.934;8.650;2022-07-21T00:57:46;15.20;;;6.82;;
17866;SDS011;9059;49.934;8.650;2022-07-21T00:58:47;13.57;;;7.22;;
17866;SDS011;9059;49.934;8.650;2022-07-21T00:59:48;11.52;;;7.03;;
17866;SDS011;9059;49.934;8.650;2022-07-21T01:00:49;13.90;;;8.30;;
17866;SDS011;9059;49.934;8.650;2022-07-21T01:01:51;13.90;;;6.95;;
17866;SDS011;9059;49.934;8.650;2022-07-21T01:02:52;16.45;;;7.70;;
17866;SDS011;9059;49.934;8.650;2022-07-21T01:03:55;16.13;;;7.50;;
17866;SDS011;9059;49.934;8.650;2022-07-21T01:04:56;14.07;;;7.38;;
17866;SDS011;9059;49.934;8.650;2022-07-21T01:05:58;15.00;;;7.97;;
17866;SDS011;9059;49.934;8.650;2022-07-21T01:06:59;13.93;;;7.82;;
17866;SDS011;9059;49.934;8.650;2022-07-21T01:08:02;11.93;;;7.38;;
17866;SDS011;9059;49.934;8.650;2022-07-21T01:09:02;11.68;;;7.18;;
17866;SDS011;9059;49.934;8.650;2022-07-21T01:10:04;14.45;;;8.35;;
17866;SDS011;9059;49.934;8.650;2022-07-21T01:11:05;13.85;;;8.38;;
17866;SDS011;9059;49.934;8.650;2022-07-21T01:12:07;14.57;;;7.60;;
17866;SDS011;9059;49.934;8.650;2022-07-21T01:13:08;11.73;;;7.32;;
17866;SDS011;9059;49.934;8.650;2022-07-21T01:14:10;12.60;;;7.57;;
17866;SDS011;9059;49.934;8.650;2022-07-21T01:15:12;11.25;;;7.65;;
17866;SDS011;9059;49.934;8.650;2022-07-21T01:16:15;13.90;;;7.40;;
17866;SDS011;9059;49.934;8.650;2022-07-21T01:17:16;12.02;;;6.90;;
17866;SDS011;9059;49.934;8.650;2022-07-21T01:18:18;13.98;;;7.68;;
17866;SDS011;9059;49.934;8.650;2022-07-21T01:19:20;13.02;;;7.30;;
17866;SDS011;9059;49.934;8.650;2022-07-21T01:20:22;12.52;;;7.47;;
17866;SDS011;9059;49.934;8.650;2022-07-21T01:21:28;13.95;;;7.93;;
17866;SDS011;9059;49.934;8.650;2022-07-21T01:22:31;14.00;;;8.00;;
17866;SDS011;9059;49.934;8.650;2022-07-21T01:23:32;12.20;;;7.85;;
17866;SDS011;9059;49.934;8.650;2022-07-21T01:24:34;12.85;;;8.40;;
17866;SDS011;9059;49.934;8.650;2022-07-21T01:25:35;13.93;;;8.05;;
17866;SDS011;9059;49.934;8.650;2022-07-21T01:26:40;17.10;;;8.48;;
17866;SDS011;9059;49.934;8.650;2022-07-21T01:27:41;14.02;;;7.50;;
17866;SDS011;9059;49.934;8.650;2022-07-21T01:28:43;13.15;;;7.93;;
17866;SDS011;9059;49.934;8.650;2022-07-21T01:29:44;16.67;;;7.80;;
17866;SDS011;9059;49.934;8.650;2022-07-21T01:30:45;14.70;;;7.97;;
17866;SDS011;9059;49.934;8.650;2022-07-21T01:31:47;15.30;;;7.63;;
17866;SDS011;9059;49.934;8.650;2022-07-21T01:32:49;16.70;;;7.95;;
17866;SDS011;9059;49.934;8.650;2022-07-21T01:33:50;18.33;;;7.95;;
17866;SDS011;9059;49.934;8.650;2022-07-21T01:34:51;15.65;;;7.80;;
17866;SDS011;9059;49.934;8.650;2022-07-21T01:35:52;13.20;;;7.47;;
17866;SDS011;9059;49.934;8.650;2022-07-21T01:36:55;13.18;;;8.40;;
17866;SDS011;9059;49.934;8.650;2022-07-21T01:37:56;18.00;;;8.43;;
17866;SDS011;9059;49.934;8.650;2022-07-21T01:38:59;13.40;;;8.50;;
17866;SDS011;9059;49.934;8.650;2022-07-21T01:40:19;16.30;;;8.60;;
17866;SDS011;9059;49.934;8.650;2022-07-21T01:41:38;13.32;;;8.23;;
17866;SDS011;9059;49.934;8.650;2022-07-21T01:42:38;12.88;;;7.95;;
17866;SDS011;9059;49.934;8.650;2022-07-21T01:43:40;15.38;;;8.25;;
17866;SDS011;9059;49.934;8.650;2022-07-21T01:44:41;13.23;;;8.25;;
17866;SDS011;9059;49.934;8.650;2022-07-21T01:45:43;14.27;;;8.25;;
17866;SDS011;9059;49.934;8.650;2022-07-21T01:46:44;15.73;;;8.80;;
17866;SDS011;9059;49.934;8.650;2022-07-21T01:47:47;15.43;;;8.27;;
17866;SDS011;9059;49.934;8.650;2022-07-21T01:48:48;17.27;;;8.57;;
17866;SDS011;9059;49.934;8.650;2022-07-21T01:49:49;13.85;;;9.10;;
17866;SDS011;9059;49.934;8.650;2022-07-21T01:50:50;16.23;;;9.10;;
17866;SDS011;9059;49.934;8.650;2022-07-21T01:51:52;19.40;;;9.52;;
17866;SDS011;9059;49.934;8.650;2022-07-21T01:52:55;16.33;;;8.77;;
17866;SDS011;9059;49.934;8.650;2022-07-21T01:53:56;15.88;;;9.50;;
17866;SDS011;9059;49.934;8.650;2022-07-21T01:54:57;16.05;;;9.60;;
17866;SDS011;9059;49.934;8.650;2022-07-21T01:55:59;15.13;;;8.35;;
17866;SDS011;9059;49.934;8.650;2022-07-21T01:57:00;14.90;;;8.95;;
17866;SDS011;9059;49.934;8.650;2022-07-21T01:58:01;14.90;;;8.10;;
17866;SDS011;9059;49.934;8.650;2022-07-21T01:59:03;15.48;;;8.73;;
17866;SDS011;9059;49.934;8.650;2022-07-21T02:00:05;17.23;;;9.02;;
17866;SDS011;9059;49.934;8.650;2022-07-21T02:01:07;23.00;;;9.32;;
17866;SDS011;9059;49.934;8.650;2022-07-21T02:02:10;15.10;;;9.32;;
17866;SDS011;9059;49.934;8.650;2022-07-21T02:03:10;23.50;;;10.57;;
17866;SDS011;9059;49.934;8.650;2022-07-21T02:04:12;19.25;;;10.60;;
17866;SDS011;9059;49.934;8.650;2022-07-21T02:05:13;15.88;;;9.85;;
17866;SDS011;9059;49.934;8.650;2022-07-21T02:06:15;19.45;;;9.43;;
17866;SDS011;9059;49.934;8.650;2022-07-21T02:07:16;15.07;;;9.23;;
17866;SDS011;9059;49.934;8.650;2022-07-21T02:08:19;16.55;;;10.45;;
17866;SDS011;9059;49.934;8.650;2022-07-21T02:09:19;15.88;;;9.30;;
17866;SDS011;9059;49.934;8.650;2022-07-21T02:10:21;18.15;;;10.45;;
17866;SDS011;9059;49.934;8.650;2022-07-21T02:11:22;17.25;;;9.20;;
17866;SDS011;9059;49.934;8.650;2022-07-21T02:12:24;19.83;;;10.52;;
17866;SDS011;9059;49.934;8.650;2022-07-21T02:13:24;17.50;;;9.88;;
17866;SDS011;9059;49.934;8.650;2022-07-21T02:14:26;17.15;;;10.43;;
17866;SDS011;9059;49.934;8.650;2022-07-21T02:15:27;21.23;;;10.68;;
17866;SDS011;9059;49.934;8.650;2022-07-21T02:16:29;17.67;;;11.25;;
17866;SDS011;9059;49.934;8.650;2022-07-21T02:17:29;19.30;;;10.45;;
17866;SDS011;9059;49.934;8.650;2022-07-21T02:18:31;16.13;;;9.90;;
17866;SDS011;9059;49.934;8.650;2022-07-21T02:19:32;21.25;;;10.63;;
17866;SDS011;9059;49.934;8.650;2022-07-21T02:20:34;25.27;;;10.88;;
17866;SDS011;9059;49.934;8.650;2022-07-21T02:21:34;18.05;;;10.52;;
17866;SDS011;9059;49.934;8.650;2022-07-21T02:22:36;18.90;;;10.50;;
17866;SDS011;9059;49.934;8.650;2022-07-21T02:23:38;18.35;;;11.32;;
17866;SDS011;9059;49.934;8.650;2022-07-21T02:24:40;20.13;;;11.13;;
17866;SDS011;9059;49.934;8.650;2022-07-21T02:25:41;20.67;;;11.32;;
17866;SDS011;9059;49.934;8.650;2022-07-21T02:26:43;20.02;;;10.27;;
17866;SDS011;9059;49.934;8.650;2022-07-21T02:27:44;20.13;;;11.70;;
17866;SDS011;9059;49.934;8.650;2022-07-21T02:28:46;18.30;;;10.60;;
17866;SDS011;9059;49.934;8.650;2022-07-21T02:29:47;18.75;;;10.30;;
17866;SDS011;9059;49.934;8.650;2022-07-21T02:30:49;19.50;;;10.05;;
17866;SDS011;9059;49.934;8.650;2022-07-21T02:31:50;17.67;;;11.05;;
17866;SDS011;9059;49.934;8.650;2022-07-21T02:32:51;21.25;;;10.82;;
17866;SDS011;9059;49.934;8.650;2022-07-21T02:33:53;18.63;;;10.77;;
17866;SDS011;9059;49.934;8.650;2022-07-21T02:34:55;17.42;;;10.55;;
17866;SDS011;9059;49.934;8.650;2022-07-21T02:35:55;16.88;;;10.68;;
17866;SDS011;9059;49.934;8.650;2022-07-21T02:36:57;17.13;;;11.43;;
17866;SDS011;9059;49.934;8.650;2022-07-21T02:37:58;17.42;;;10.02;;
17866;SDS011;9059;49.934;8.650;2022-07-21T02:39:01;19.40;;;11.50;;
17866;SDS011;9059;49.934;8.650;2022-07-21T02:40:02;19.73;;;10.85;;
17866;SDS011;9059;49.934;8.650;2022-07-21T02:41:05;17.08;;;10.30;;
17866;SDS011;9059;49.934;8.650;2022-07-21T02:42:05;20.15;;;11.85;;
17866;SDS011;9059;49.934;8.650;2022-07-21T02:43:07;18.13;;;10.30;;
17866;SDS011;9059;49.934;8.650;2022-07-21T02:44:08;20.05;;;10.95;;
17866;SDS011;9059;49.934;8.650;2022-07-21T02:45:10;18.42;;;9.45;;
17866;SDS011;9059;49.934;8.650;2022-07-21T02:46:11;21.33;;;11.40;;
17866;SDS011;9059;49.934;8.650;2022-07-21T02:47:13;23.90;;;10.13;;
17866;SDS011;9059;49.934;8.650;2022-07-21T02:48:14;20.40;;;10.32;;
17866;SDS011;9059;49.934;8.650;2022-07-21T02:49:15;19.85;;;11.00;;
17866;SDS011;9059;49.934;8.650;2022-07-21T02:50:16;14.15;;;8.73;;
17866;SDS011;9059;49.934;8.650;2022-07-21T02:51:18;15.23;;;9.38;;
17866;SDS011;9059;49.934;8.650;2022-07-21T02:52:19;16.80;;;8.57;;
17866;SDS011;9059;49.934;8.650;2022-07-21T02:53:21;12.32;;;8.15;;
17866;SDS011;9059;49.934;8.650;2022-07-21T02:54:24;12.60;;;7.78;;
17866;SDS011;9059;49.934;8.650;2022-07-21T02:55:26;18.60;;;8.05;;
17866;SDS011;9059;49.934;8.650;2022-07-21T02:56:27;13.77;;;7.53;;
17866;SDS011;9059;49.934;8.650;2022-07-21T02:57:29;16.15;;;8.10;;
17866;SDS011;9059;49.934;8.650;2022-07-21T02:58:29;13.27;;;8.10;;
17866;SDS011;9059;49.934;8.650;2022-07-21T02:59:31;14.40;;;8.27;;
17866;SDS011;9059;49.934;8.650;2022-07-21T03:00:32;16.38;;;7.30;;
17866;SDS011;9059;49.934;8.650;2022-07-21T03:01:34;11.15;;;7.68;;
17866;SDS011;9059;49.934;8.650;2022-07-21T03:02:35;12.70;;;8.13;;
17866;SDS011;9059;49.934;8.650;2022-07-21T03:03:36;13.93;;;7.43;;
17866;SDS011;9059;49.934;8.650;2022-07-21T03:04:37;14.55;;;8.00;;
17866;SDS011;9059;49.934;8.650;2022-07-21T03:05:39;14.23;;;7.38;;
17866;SDS011;9059;49.934;8.650;2022-07-21T03:06:40;10.77;;;7.40;;
17866;SDS011;9059;49.934;8.650;2022-07-21T03:07:42;11.98;;;7.38;;
17866;SDS011;9059;49.934;8.650;2022-07-21T03:08:43;10.80;;;6.40;;
17866;SDS011;9059;49.934;8.650;2022-07-21T03:09:46;10.13;;;6.10;;
17866;SDS011;9059;49.934;8.650;2022-07-21T03:10:47;10.32;;;6.18;;
17866;SDS011;9059;49.934;8.650;2022-07-21T03:11:49;11.23;;;6.25;;
17866;SDS011;9059;49.934;8.650;2022-07-21T03:12:50;9.45;;;5.60;;
17866;SDS011;9059;49.934;8.650;2022-07-21T03:13:52;12.50;;;5.57;;
17866;SDS011;9059;49.934;8.650;2022-07-21T03:14:53;11.27;;;4.47;;
17866;SDS011;9059;49.934;8.650;2022-07-21T03:15:54;7.00;;;4.60;;
17866;SDS011;9059;49.934;8.650;2022-07-21T03:16:56;9.98;;;4.82;;
17866;SDS011;9059;49.934;8.650;2022-07-21T03:17:57;8.05;;;4.43;;
17866;SDS011;9059;49.934;8.650;2022-07-21T03:18:59;8.63;;;4.65;;
17866;SDS011;9059;49.934;8.650;2022-07-21T03:20:00;8.70;;;4.75;;
17866;SDS011;9059;49.934;8.650;2022-07-21T03:21:02;10.63;;;5.10;;
17866;SDS011;9059;49.934;8.650;2022-07-21T03:22:04;9.30;;;5.13;;
17866;SDS011;9059;49.934;8.650;2022-07-21T03:23:05;8.43;;;4.10;;
17866;SDS011;9059;49.934;8.650;2022-07-21T03:24:07;8.90;;;4.15;;
17866;SDS011;9059;49.934;8.650;2022-07-21T03:25:09;6.95;;;4.32;;
17866;SDS011;9059;49.934;8.650;2022-07-21T03:26:11;9.82;;;4.70;;
17866;SDS011;9059;49.934;8.650;2022-07-21T03:27:13;10.88;;;4.78;;
17866;SDS011;9059;49.934;8.650;2022-07-21T03:28:14;6.10;;;4.40;;
17866;SDS011;9059;49.934;8.650;2022-07-21T03:29:17;8.35;;;5.25;;
17866;SDS011;9059;49.934;8.650;2022-07-21T03:30:18;8.73;;;4.90;;
17866;SDS011;9059;49.934;8.650;2022-07-21T03:31:22;10.65;;;5.47;;
17866;SDS011;9059;49.934;8.650;2022-07-21T03:32:22;10.27;;;6.35;;
17866;SDS011;9059;49.934;8.650;2022-07-21T03:33:24;11.13;;;6.40;;
17866;SDS011;9059;49.934;8.650;2022-07-21T03:34:25;12.88;;;6.95;;
17866;SDS011;9059;49.934;8.650;2022-07-21T03:35:26;10.63;;;6.35;;
17866;SDS011;9059;49.934;8.650;2022-07-21T03:36:27;14.77;;;6.65;;
17866;SDS011;9059;49.934;8.650;2022-07-21T03:37:30;10.60;;;7.07;;
17866;SDS011;9059;49.934;8.650;2022-07-21T03:38:30;9.95;;;6.57;;
17866;SDS011;9059;49.934;8.650;2022-07-21T03:39:32;12.02;;;6.30;;
17866;SDS011;9059;49.934;8.650;2022-07-21T03:40:35;11.45;;;7.03;;
17866;SDS011;9059;49.934;8.650;2022-07-21T03:41:37;11.52;;;6.60;;
17866;SDS011;9059;49.934;8.650;2022-07-21T03:42:38;13.20;;;6.50;;
17866;SDS011;9059;49.934;8.650;2022-07-21T03:43:40;12.25;;;7.07;;
17866;SDS011;9059;49.934;8.650;2022-07-21T03:44:41;12.63;;;7.20;;
17866;SDS011;9059;49.934;8.650;2022-07-21T03:45:42;9.90;;;6.40;;
17866;SDS011;9059;49.934;8.650;2022-07-21T03:46:43;10.68;;;6.63;;
17866;SDS011;9059;49.934;8.650;2022-07-21T03:47:45;10.85;;;7.13;;
17866;SDS011;9059;49.934;8.650;2022-07-21T03:48:45;9.40;;;6.03;;
17866;SDS011;9059;49.934;8.650;2022-07-21T03:49:47;9.80;;;6.68;;
17866;SDS011;9059;49.934;8.650;2022-07-21T03:50:48;11.45;;;7.05;;
17866;SDS011;9059;49.934;8.650;2022-07-21T03:51:50;9.65;;;5.72;;
17866;SDS011;9059;49.934;8.650;2022-07-21T03:52:50;10.73;;;5.57;;
17866;SDS011;9059;49.934;8.650;2022-07-21T03:53:52;7.40;;;5.28;;
17866;SDS011;9059;49.934;8.650;2022-07-21T03:54:54;9.07;;;5.55;;
17866;SDS011;9059;49.934;8.650;2022-07-21T03:56:09;7.38;;;5.45;;
17866;SDS011;9059;49.934;8.650;2022-07-21T03:57:11;8.93;;;5.70;;
17866;SDS011;9059;49.934;8.650;2022-07-21T03:58:11;8.25;;;5.50;;
17866;SDS011;9059;49.934;8.650;2022-07-21T03:59:13;9.27;;;5.63;;
17866;SDS011;9059;49.934;8.650;2022-07-21T04:00:15;7.50;;;5.03;;
17866;SDS011;9059;49.934;8.650;2022-07-21T04:01:18;9.55;;;5.53;;
17866;SDS011;9059;49.934;8.650;2022-07-21T04:02:18;9.05;;;4.88;;
17866;SDS011;9059;49.934;8.650;2022-07-21T04:03:20;7.45;;;5.32;;
17866;SDS011;9059;49.934;8.650;2022-07-21T04:04:22;10.32;;;4.82;;
17866;SDS011;9059;49.934;8.650;2022-07-21T04:05:23;8.05;;;5.13;;
17866;SDS011;9059;49.934;8.650;2022-07-21T04:06:25;9.95;;;5.10;;
17866;SDS011;9059;49.934;8.650;2022-07-21T04:07:25;7.95;;;4.70;;
17866;SDS011;9059;49.934;8.650;2022-07-21T04:08:27;14.27;;;5.13;;
17866;SDS011;9059;49.934;8.650;2022-07-21T04:09:29;8.52;;;4.57;;
17866;SDS011;9059;49.934;8.650;2022-07-21T04:10:32;7.78;;;4.88;;
17866;SDS011;9059;49.934;8.650;2022-07-21T04:11:36;8.88;;;4.95;;
17866;SDS011;9059;49.934;8.650;2022-07-21T04:12:37;9.77;;;4.43;;
17866;SDS011;9059;49.934;8.650;2022-07-21T04:13:39;8.20;;;4.85;;
17866;SDS011;9059;49.934;8.650;2022-07-21T04:14:41;8.02;;;4.65;;
17866;SDS011;9059;49.934;8.650;2022-07-21T04:15:41;10.23;;;5.05;;
17866;SDS011;9059;49.934;8.650;2022-07-21T04:16:43;7.13;;;4.38;;
17866;SDS011;9059;49.934;8.650;2022-07-21T04:17:44;6.60;;;4.38;;
17866;SDS011;9059;49.934;8.650;2022-07-21T04:18:46;10.95;;;5.35;;
17866;SDS011;9059;49.934;8.650;2022-07-21T04:19:47;8.75;;;4.70;;
17866;SDS011;9059;49.934;8.650;2022-07-21T04:20:49;9.82;;;4.78;;
17866;SDS011;9059;49.934;8.650;2022-07-21T04:21:49;8.80;;;4.38;;
17866;SDS011;9059;49.934;8.650;2022-07-21T04:22:51;7.30;;;4.22;;
17866;SDS011;9059;49.934;8.650;2022-07-21T04:23:52;7.68;;;5.00;;
17866;SDS011;9059;49.934;8.650;2022-07-21T04:24:54;9.25;;;4.85;;
17866;SDS011;9059;49.934;8.650;2022-07-21T04:25:55;8.52;;;4.32;;
17866;SDS011;9059;49.934;8.650;2022-07-21T04:26:58;7.78;;;4.78;;
17866;SDS011;9059;49.934;8.650;2022-07-21T04:27:58;7.00;;;4.30;;
17866;SDS011;9059;49.934;8.650;2022-07-21T04:29:00;7.15;;;4.38;;
17866;SDS011;9059;49.934;8.650;2022-07-21T04:30:01;6.40;;;3.97;;
17866;SDS011;9059;49.934;8.650;2022-07-21T04:31:03;6.80;;;4.22;;
17866;SDS011;9059;49.934;8.650;2022-07-21T04:32:04;7.50;;;3.85;;
17866;SDS011;9059;49.934;8.650;2022-07-21T04:33:06;7.30;;;4.43;;
17866;SDS011;9059;49.934;8.650;2022-07-21T04:34:08;6.35;;;3.80;;
17866;SDS011;9059;49.934;8.650;2022-07-21T04:35:08;11.32;;;4.22;;
17866;SDS011;9059;49.934;8.650;2022-07-21T04:36:10;8.38;;;4.13;;
17866;SDS011;9059;49.934;8.650;2022-07-21T04:37:11;6.63;;;4.30;;
17866;SDS011;9059;49.934;8.650;2022-07-21T04:38:13;7.53;;;4.38;;
17866;SDS011;9059;49.934;8.650;2022-07-21T04:39:14;8.30;;;4.15;;
17866;SDS011;9059;49.934;8.650;2022-07-21T04:40:15;6.90;;;4.22;;
17866;SDS011;9059;49.934;8.650;2022-07-21T04:41:17;10.77;;;4.20;;
17866;SDS011;9059;49.934;8.650;2022-07-21T04:42:19;6.60;;;3.88;;
17866;SDS011;9059;49.934;8.650;2022-07-21T04:43:21;5.75;;;3.85;;
17866;SDS011;9059;49.934;8.650;2022-07-21T04:44:21;6.07;;;3.92;;
17866;SDS011;9059;49.934;8.650;2022-07-21T04:45:23;4.78;;;3.42;;
17866;SDS011;9059;49.934;8.650;2022-07-21T04:46:24;6.75;;;3.88;;
17866;SDS011;9059;49.934;8.650;2022-07-21T04:47:25;6.47;;;3.58;;
17866;SDS011;9059;49.934;8.650;2022-07-21T04:48:26;6.13;;;3.67;;
17866;SDS011;9059;49.934;8.650;2022-07-21T04:49:28;5.53;;;3.85;;
17866;SDS011;9059;49.934;8.650;2022-07-21T04:50:29;8.32;;;3.95;;
17866;SDS011;9059;49.934;8.650;2022-07-21T04:51:32;6.05;;;3.90;;
17866;SDS011;9059;49.934;8.650;2022-07-21T04:52:33;9.80;;;4.00;;
17866;SDS011;9059;49.934;8.650;2022-07-21T04:53:34;5.93;;;3.30;;
17866;SDS011;9059;49.934;8.650;2022-07-21T04:54:35;6.68;;;3.58;;
17866;SDS011;9059;49.934;8.650;2022-07-21T04:55:37;4.55;;;3.40;;
17866;SDS011;9059;49.934;8.650;2022-07-21T04:56:39;7.15;;;3.67;;
17866;SDS011;9059;49.934;8.650;2022-07-21T04:57:42;6.72;;;3.67;;
17866;SDS011;9059;49.934;8.650;2022-07-21T04:58:45;7.95;;;3.72;;
17866;SDS011;9059;49.934;8.650;2022-07-21T04:59:46;5.15;;;3.53;;
17866;SDS011;9059;49.934;8.650;2022-07-21T05:00:48;7.43;;;3.70;;
17866;SDS011;9059;49.934;8.650;2022-07-21T05:01:49;6.07;;;3.80;;
17866;SDS011;9059;49.934;8.650;2022-07-21T05:02:51;5.20;;;3.50;;
17866;SDS011;9059;49.934;8.650;2022-07-21T05:03:52;6.00;;;3.72;;
17866;SDS011;9059;49.934;8.650;2022-07-21T05:04:54;6.32;;;3.83;;
17866;SDS011;9059;49.934;8.650;2022-07-21T05:05:55;7.72;;;3.95;;
17866;SDS011;9059;49.934;8.650;2022-07-21T05:06:57;5.22;;;4.00;;
17866;SDS011;9059;49.934;8.650;2022-07-21T05:07:57;5.07;;;3.90;;
17866;SDS011;9059;49.934;8.650;2022-07-21T05:08:59;6.47;;;3.60;;
17866;SDS011;9059;49.934;8.650;2022-07-21T05:10:02;6.40;;;4.00;;
17866;SDS011;9059;49.934;8.650;2022-07-21T05:11:05;7.80;;;3.83;;
17866;SDS011;9059;49.934;8.650;2022-07-21T05:12:05;5.38;;;3.75;;
17866;SDS011;9059;49.934;8.650;2022-07-21T05:13:08;5.28;;;3.65;;
17866;SDS011;9059;49.934;8.650;2022-07-21T05:14:09;6.70;;;4.05;;
17866;SDS011;9059;49.934;8.650;2022-07-21T05:15:12;8.20;;;3.67;;
17866;SDS011;9059;49.934;8.650;2022-07-21T05:16:12;4.75;;;3.65;;
17866;SDS011;9059;49.934;8.650;2022-07-21T05:17:14;5.50;;;3.70;;
17866;SDS011;9059;49.934;8.650;2022-07-21T05:18:18;5.10;;;3.80;;
17866;SDS011;9059;49.934;8.650;2022-07-21T05:19:19;11.07;;;4.07;;
17866;SDS011;9059;49.934;8.650;2022-07-21T05:20:20;8.50;;;3.83;;
17866;SDS011;9059;49.934;8.650;2022-07-21T05:21:22;10.02;;;4.20;;
17866;SDS011;9059;49.934;8.650;2022-07-21T05:22:22;6.63;;;4.25;;
17866;SDS011;9059;49.934;8.650;2022-07-21T05:23:24;5.85;;;3.95;;
17866;SDS011;9059;49.934;8.650;2022-07-21T05:24:25;7.57;;;3.85;;
17866;SDS011;9059;49.934;8.650;2022-07-21T05:25:27;7.95;;;4.18;;
17866;SDS011;9059;49.934;8.650;2022-07-21T05:26:27;6.13;;;4.07;;
17866;SDS011;9059;49.934;8.650;2022-07-21T05:27:29;5.82;;;4.18;;
17866;SDS011;9059;49.934;8.650;2022-07-21T05:28:31;6.22;;;4.10;;
17866;SDS011;9059;49.934;8.650;2022-07-21T05:29:32;9.57;;;4.07;;
17866;SDS011;9059;49.934;8.650;2022-07-21T05:30:33;6.68;;;3.63;;
17866;SDS011;9059;49.934;8.650;2022-07-21T05:31:35;5.53;;;3.50;;
17866;SDS011;9059;49.934;8.650;2022-07-21T05:32:36;6.40;;;4.55;;
17866;SDS011;9059;49.934;8.650;2022-07-21T05:33:37;5.95;;;3.47;;
17866;SDS011;9059;49.934;8.650;2022-07-21T05:34:38;7.47;;;4.03;;
17866;SDS011;9059;49.934;8.650;2022-07-21T05:35:40;5.60;;;3.92;;
17866;SDS011;9059;49.934;8.650;2022-07-21T05:36:40;6.30;;;3.90;;
17866;SDS011;9059;49.934;8.650;2022-07-21T05:37:42;8.70;;;4.15;;
17866;SDS011;9059;49.934;8.650;2022-07-21T05:38:43;6.10;;;3.65;;
17866;SDS011;9059;49.934;8.650;2022-07-21T05:39:45;9.10;;;4.32;;
17866;SDS011;9059;49.934;8.650;2022-07-21T05:40:47;4.95;;;3.60;;
17866;SDS011;9059;49.934;8.650;2022-07-21T05:41:47;8.25;;;4.28;;
17866;SDS011;9059;49.934;8.650;2022-07-21T05:42:49;6.18;;;4.20;;
17866;SDS011;9059;49.934;8.650;2022-07-21T05:43:51;6.30;;;4.13;;
17866;SDS011;9059;49.934;8.650;2022-07-21T05:44:53;7.55;;;3.92;;
17866;SDS011;9059;49.934;8.650;2022-07-21T05:45:55;11.05;;;3.70;;
17866;SDS011;9059;49.934;8.650;2022-07-21T05:46:57;7.53;;;4.00;;
17866;SDS011;9059;49.934;8.650;2022-07-21T05:47:58;7.15;;;4.00;;
17866;SDS011;9059;49.934;8.650;2022-07-21T05:48:59;6.57;;;3.70;;
17866;SDS011;9059;49.934;8.650;2022-07-21T05:50:01;8.80;;;3.95;;
17866;SDS011;9059;49.934;8.650;2022-07-21T05:51:03;4.95;;;3.90;;
17866;SDS011;9059;49.934;8.650;2022-07-21T05:52:04;6.95;;;3.58;;
17866;SDS011;9059;49.934;8.650;2022-07-21T05:53:06;6.38;;;3.97;;
17866;SDS011;9059;49.934;8.650;2022-07-21T05:54:06;7.82;;;3.70;;
17866;SDS011;9059;49.934;8.650;2022-07-21T05:55:08;9.18;;;3.75;;
17866;SDS011;9059;49.934;8.650;2022-07-21T05:56:09;6.45;;;3.63;;
17866;SDS011;9059;49.934;8.650;2022-07-21T05:57:11;5.88;;;3.80;;
17866;SDS011;9059;49.934;8.650;2022-07-21T05:58:12;7.28;;;4.07;;
17866;SDS011;9059;49.934;8.650;2022-07-21T05:59:15;7.25;;;3.72;;
17866;SDS011;9059;49.934;8.650;2022-07-21T06:00:16;6.45;;;4.28;;
17866;SDS011;9059;49.934;8.650;2022-07-21T06:01:17;6.28;;;4.10;;
17866;SDS011;9059;49.934;8.650;2022-07-21T06:02:19;8.05;;;3.72;;
17866;SDS011;9059;49.934;8.650;2022-07-21T06:03:20;6.95;;;4.07;;
17866;SDS011;9059;49.934;8.650;2022-07-21T06:04:21;12.02;;;3.90;;
17866;SDS011;9059;49.934;8.650;2022-07-21T06:05:23;7.18;;;4.28;;
17866;SDS011;9059;49.934;8.650;2022-07-21T06:06:24;7.53;;;4.18;;
17866;SDS011;9059;49.934;8.650;2022-07-21T06:07:26;6.90;;;4.22;;
17866;SDS011;9059;49.934;8.650;2022-07-21T06:08:27;5.95;;;3.67;;
17866;SDS011;9059;49.934;8.650;2022-07-21T06:09:28;6.28;;;4.10;;
17866;SDS011;9059;49.934;8.650;2022-07-21T06:10:30;6.63;;;3.67;;
17866;SDS011;9059;49.934;8.650;2022-07-21T06:11:31;6.85;;;4.15;;
17866;SDS011;9059;49.934;8.650;2022-07-21T06:12:32;6.90;;;4.03;;
17866;SDS011;9059;49.934;8.650;2022-07-21T06:13:33;8.73;;;3.67;;